createdAt,value
2023-04-18T00:02:07.178Z,9.20
2023-04-18T00:04:36.082Z,9.20
2023-04-18T00:07:04.394Z,9.10
2023-04-18T00:09:33.035Z,9.20
2023-04-18T00:12:04.488Z,9.20
2023-04-18T00:14:34.314Z,9.20
2023-04-18T00:17:04.277Z,9.20
2023-04-18T00:19:34.442Z,9.20
2023-04-18T00:22:02.903Z,9.20
2023-04-18T00:24:31.605Z,9.10
2023-04-18T00:26:59.994Z,9.10
2023-04-18T00:29:29.098Z,9.00
2023-04-18T00:31:57.226Z,9.10
2023-04-18T00:34:26.995Z,9.10
2023-04-18T00:36:55.524Z,9.00
2023-04-18T00:39:23.696Z,9.00
2023-04-18T00:41:52.098Z,9.00
2023-04-18T00:44:20.367Z,9.00
2023-04-18T00:46:48.704Z,9.00
2023-04-18T00:49:17.239Z,9.10
2023-04-18T00:51:47.707Z,9.00
2023-04-18T00:54:19.032Z,8.90
2023-04-18T00:56:47.302Z,8.90
2023-04-18T00:59:15.624Z,8.90
2023-04-18T01:01:45.414Z,8.80
2023-04-18T01:04:13.972Z,8.90
2023-04-18T01:06:44.128Z,8.80
2023-04-18T01:09:14.888Z,8.70
2023-04-18T01:11:42.988Z,8.70
2023-04-18T01:14:11.218Z,8.70
2023-04-18T01:16:40.241Z,8.80
2023-04-18T01:19:08.472Z,8.80
2023-04-18T01:21:37.420Z,8.90
2023-04-18T01:24:12.401Z,8.80
2023-04-18T01:26:41.130Z,8.70
2023-04-18T01:29:09.265Z,8.60
2023-04-18T01:31:38.848Z,8.60
2023-04-18T01:34:07.503Z,8.50
2023-04-18T01:36:36.776Z,8.60
2023-04-18T01:39:05.608Z,8.60
2023-04-18T01:41:35.329Z,8.60
2023-04-18T01:44:03.665Z,8.60
2023-04-18T01:46:32.755Z,8.40
2023-04-18T01:49:01.070Z,8.40
2023-04-18T01:51:29.210Z,8.40
2023-04-18T01:53:57.499Z,8.40
2023-04-18T01:56:25.591Z,8.40
2023-04-18T01:58:55.066Z,8.30
2023-04-18T02:01:24.021Z,8.40
2023-04-18T02:03:52.360Z,8.40
2023-04-18T02:06:20.694Z,8.40
2023-04-18T02:08:49.808Z,8.50
2023-04-18T02:11:17.992Z,8.40
2023-04-18T02:13:46.134Z,8.30
2023-04-18T02:16:16.302Z,8.30
2023-04-18T02:18:44.857Z,8.20
2023-04-18T02:21:13.253Z,8.10
2023-04-18T02:23:42.050Z,8.00
2023-04-18T02:26:10.200Z,8.00
2023-04-18T02:28:39.253Z,8.00
2023-04-18T02:31:14.742Z,8.00
2023-04-18T02:33:45.111Z,7.90
2023-04-18T02:36:14.054Z,8.00
2023-04-18T02:38:42.457Z,8.00
2023-04-18T02:41:15.121Z,8.00
2023-04-18T02:43:43.747Z,8.00
2023-04-18T02:46:11.982Z,8.00
2023-04-18T02:48:40.266Z,7.90
2023-04-18T02:51:10.977Z,7.90
2023-04-18T02:53:39.181Z,8.00
2023-04-18T02:56:08.393Z,8.00
2023-04-18T02:58:37.247Z,7.90
2023-04-18T03:01:05.692Z,8.00
2023-04-18T03:03:33.878Z,7.90
2023-04-18T03:06:02.158Z,7.80
2023-04-18T03:08:31.744Z,7.80
2023-04-18T03:10:59.996Z,7.80
2023-04-18T03:13:28.650Z,7.70
2023-04-18T03:15:56.986Z,7.60
2023-04-18T03:18:25.316Z,7.60
2023-04-18T03:20:54.006Z,7.60
2023-04-18T03:23:22.196Z,7.60
2023-04-18T03:25:51.826Z,7.60
2023-04-18T03:28:20.690Z,7.60
2023-04-18T03:30:48.830Z,7.50
2023-04-18T03:33:18.092Z,7.50
2023-04-18T03:35:46.673Z,7.50
2023-04-18T03:38:15.113Z,7.50
2023-04-18T03:40:44.517Z,7.60
2023-04-18T03:43:14.168Z,7.60
2023-04-18T03:45:44.157Z,7.50
2023-04-18T03:48:13.444Z,7.40
2023-04-18T03:50:42.082Z,7.40
2023-04-18T03:53:10.444Z,7.40
2023-04-18T03:55:39.074Z,7.40
2023-04-18T03:58:07.422Z,7.40
2023-04-18T04:00:37.415Z,7.40
2023-04-18T04:03:07.043Z,7.40
2023-04-18T04:05:36.035Z,7.40
2023-04-18T04:08:04.215Z,7.50
2023-04-18T04:10:32.383Z,7.40
2023-04-18T04:13:01.062Z,7.40
2023-04-18T04:15:29.259Z,7.40
2023-04-18T04:17:59.090Z,7.40
2023-04-18T04:20:28.158Z,7.40
2023-04-18T04:22:58.152Z,7.30
2023-04-18T04:25:29.894Z,7.30
2023-04-18T04:27:58.075Z,7.30
2023-04-18T04:30:26.256Z,7.30
2023-04-18T04:32:56.652Z,7.10
2023-04-18T04:35:26.909Z,7.20
2023-04-18T04:37:55.325Z,7.20
2023-04-18T04:40:24.498Z,7.20
2023-04-18T04:42:54.184Z,7.30
2023-04-18T04:45:23.401Z,7.20
2023-04-18T04:47:51.628Z,7.20
2023-04-18T04:50:20.140Z,7.20
2023-04-18T04:52:49.942Z,7.10
2023-04-18T04:55:19.058Z,7.10
2023-04-18T04:57:47.816Z,7.10
2023-04-18T05:00:20.977Z,7.10
2023-04-18T05:02:49.414Z,7.00
2023-04-18T05:05:17.734Z,6.90
2023-04-18T05:07:46.207Z,6.90
2023-04-18T05:10:16.225Z,6.90
2023-04-18T05:12:44.478Z,6.90
2023-04-18T05:15:13.692Z,6.80
2023-04-18T05:17:42.066Z,6.90
2023-04-18T05:20:11.413Z,6.90
2023-04-18T05:22:39.666Z,6.90
2023-04-18T05:25:09.007Z,6.80
2023-04-18T05:27:38.577Z,6.80
2023-04-18T05:30:08.345Z,6.80
2023-04-18T05:32:38.989Z,6.90
2023-04-18T05:35:08.082Z,6.80
2023-04-18T05:37:36.520Z,6.80
2023-04-18T05:40:05.288Z,6.80
2023-04-18T05:42:33.626Z,6.80
2023-04-18T05:45:03.447Z,7.00
2023-04-18T05:47:33.661Z,7.20
2023-04-18T05:50:01.925Z,7.40
2023-04-18T05:52:30.180Z,7.60
2023-04-18T05:54:58.480Z,7.80
2023-04-18T05:57:27.231Z,7.90
2023-04-18T05:59:55.907Z,8.10
2023-04-18T06:02:25.740Z,8.20
2023-04-18T06:04:54.412Z,8.30
2023-04-18T06:07:25.353Z,8.50
2023-04-18T06:09:54.102Z,8.30
2023-04-18T06:12:22.517Z,8.30
2023-04-18T06:14:51.688Z,8.50
2023-04-18T06:17:20.841Z,8.50
2023-04-18T06:19:50.381Z,8.60
2023-04-18T06:22:18.863Z,8.50
2023-04-18T06:24:47.673Z,8.40
2023-04-18T06:27:30.278Z,8.40
2023-04-18T06:30:00.088Z,8.50
2023-04-18T06:32:28.338Z,8.50
2023-04-18T06:34:57.911Z,8.50
2023-04-18T06:37:26.550Z,8.50
2023-04-18T06:39:55.689Z,8.60
2023-04-18T06:42:23.887Z,8.60
2023-04-18T06:44:52.383Z,8.70
2023-04-18T06:47:20.641Z,8.70
2023-04-18T06:49:49.115Z,8.70
2023-04-18T06:52:18.903Z,8.70
2023-04-18T06:54:46.981Z,8.90
2023-04-18T06:57:15.167Z,9.00
2023-04-18T06:59:43.795Z,9.20
2023-04-18T07:02:12.646Z,9.20
2023-04-18T07:04:41.156Z,9.10
2023-04-18T07:07:10.235Z,9.20
2023-04-18T07:09:39.963Z,9.50
2023-04-18T07:12:08.434Z,9.50
2023-04-18T07:14:37.030Z,9.40
2023-04-18T07:17:05.324Z,9.60
2023-04-18T07:19:33.575Z,9.70
2023-04-18T07:22:02.351Z,9.80
2023-04-18T07:24:30.999Z,9.60
2023-04-18T07:27:01.381Z,9.60
2023-04-18T07:29:29.963Z,9.60
2023-04-18T07:31:58.956Z,9.80
2023-04-18T07:34:29.872Z,9.80
2023-04-18T07:36:59.139Z,9.80
2023-04-18T07:39:27.390Z,9.80
2023-04-18T07:41:55.564Z,9.80
2023-04-18T07:44:26.005Z,9.80
2023-04-18T07:46:54.265Z,9.70
2023-04-18T07:49:22.505Z,9.50
2023-04-18T07:51:50.829Z,9.50
2023-04-18T07:54:18.995Z,9.50
2023-04-18T07:56:47.525Z,9.60
2023-04-18T07:59:16.730Z,9.60
2023-04-18T08:01:46.602Z,9.70
2023-04-18T08:04:15.948Z,9.90
2023-04-18T08:06:44.624Z,10.10
2023-04-18T08:09:13.077Z,10.50
2023-04-18T08:11:43.620Z,10.70
2023-04-18T08:14:12.207Z,10.80
2023-04-18T08:16:40.503Z,10.90
2023-04-18T08:19:10.261Z,11.00
2023-04-18T08:21:39.585Z,11.10
2023-04-18T08:24:08.400Z,11.00
2023-04-18T08:26:36.611Z,11.20
2023-04-18T08:29:05.256Z,11.50
2023-04-18T08:31:33.541Z,11.60
2023-04-18T08:34:03.127Z,12.00
2023-04-18T08:36:36.353Z,12.10
2023-04-18T08:39:04.645Z,11.80
2023-04-18T08:41:37.389Z,11.60
2023-04-18T08:44:05.833Z,11.60
2023-04-18T08:46:35.893Z,11.50
2023-04-18T08:49:06.301Z,11.40
2023-04-18T08:51:36.011Z,11.20
2023-04-18T08:54:08.270Z,11.10
2023-04-18T08:56:37.533Z,10.90
2023-04-18T08:59:06.011Z,10.90
2023-04-18T09:01:57.066Z,10.60
2023-04-18T09:04:37.335Z,10.80
2023-04-18T09:07:09.196Z,11.10
2023-04-18T09:09:48.152Z,11.10
2023-04-18T09:12:19.996Z,11.30
2023-04-18T09:14:50.377Z,11.10
2023-04-18T09:17:33.192Z,10.70
2023-04-18T09:20:05.182Z,10.60
2023-04-18T09:22:51.951Z,10.70
2023-04-18T09:25:30.536Z,11.20
2023-04-18T09:28:01.384Z,11.60
2023-04-18T09:30:36.946Z,11.90
2023-04-18T09:33:07.926Z,12.00
2023-04-18T09:35:37.027Z,11.80
2023-04-18T09:38:07.286Z,11.60
2023-04-18T09:40:35.895Z,11.40
2023-04-18T09:43:19.467Z,11.20
2023-04-18T09:45:49.748Z,11.40
2023-04-18T09:48:18.087Z,11.70
2023-04-18T09:50:48.685Z,11.50
2023-04-18T09:53:21.100Z,11.00
2023-04-18T09:55:53.255Z,10.80
2023-04-18T09:58:24.092Z,10.70
2023-04-18T10:00:54.751Z,10.70
2023-04-18T10:03:27.375Z,11.20
2023-04-18T10:05:57.762Z,11.60
2023-04-18T10:08:28.614Z,11.70
2023-04-18T10:10:58.731Z,11.70
2023-04-18T10:13:29.381Z,12.10
2023-04-18T10:15:58.536Z,12.50
2023-04-18T10:18:26.863Z,12.70
2023-04-18T10:21:04.343Z,12.90
2023-04-18T10:23:39.131Z,13.10
2023-04-18T10:26:08.013Z,12.90
2023-04-18T10:28:54.568Z,12.80
2023-04-18T10:31:24.719Z,13.10
2023-04-18T10:36:28.460Z,13.20
2023-04-18T10:39:03.212Z,13.40
2023-04-18T10:41:33.099Z,13.60
2023-04-18T10:44:22.403Z,13.50
2023-04-18T10:47:33.739Z,13.40
2023-04-18T10:50:07.031Z,13.00
2023-04-18T10:52:36.101Z,12.80
2023-04-18T10:55:26.859Z,12.90
2023-04-18T10:57:57.912Z,13.20
2023-04-18T11:00:26.773Z,13.70
2023-04-18T11:02:57.764Z,13.90
2023-04-18T11:05:28.292Z,13.80
2023-04-18T11:07:56.763Z,13.80
2023-04-18T11:10:27.874Z,13.80
2023-04-18T11:12:56.843Z,13.70
2023-04-18T11:15:28.605Z,13.90
2023-04-18T11:17:59.974Z,13.90
2023-04-18T11:20:28.936Z,14.00
2023-04-18T11:22:58.259Z,14.00
2023-04-18T11:25:30.625Z,13.80
2023-04-18T11:28:01.122Z,13.10
2023-04-18T11:30:36.996Z,13.10
2023-04-18T11:33:07.545Z,13.50
2023-04-18T11:35:39.279Z,13.30
2023-04-18T11:38:08.089Z,13.10
2023-04-18T11:40:39.801Z,13.10
2023-04-18T11:43:08.753Z,13.20
2023-04-18T11:45:36.960Z,13.70
2023-04-18T11:48:05.387Z,14.10
2023-04-18T11:50:38.444Z,14.10
2023-04-18T11:53:06.673Z,13.90
2023-04-18T11:55:36.210Z,14.10
2023-04-18T11:58:06.403Z,14.30
2023-04-18T12:00:37.227Z,14.40
2023-04-18T12:03:09.035Z,14.20
2023-04-18T12:05:39.639Z,13.90
2023-04-18T12:08:11.638Z,14.00
2023-04-18T12:10:46.581Z,13.80
2023-04-18T12:13:16.620Z,13.60
2023-04-18T12:15:46.498Z,13.60
2023-04-18T12:18:15.828Z,13.50
2023-04-18T12:20:50.678Z,13.50
2023-04-18T12:23:35.636Z,13.50
2023-04-18T12:26:05.959Z,13.30
2023-04-18T12:28:36.625Z,13.40
2023-04-18T12:31:07.579Z,13.70
2023-04-18T12:33:36.828Z,14.00
2023-04-18T12:36:06.155Z,14.10
2023-04-18T12:38:34.639Z,14.20
2023-04-18T12:41:02.803Z,14.20
2023-04-18T12:43:31.201Z,14.40
2023-04-18T12:46:01.740Z,14.80
2023-04-18T12:48:29.884Z,14.50
2023-04-18T12:50:58.045Z,14.60
2023-04-18T12:53:26.458Z,14.50
2023-04-18T12:55:54.646Z,14.40
2023-04-18T12:58:23.057Z,14.40
2023-04-18T13:00:51.528Z,14.50
2023-04-18T13:03:21.365Z,14.30
2023-04-18T13:05:49.626Z,13.90
2023-04-18T13:08:18.224Z,14.10
2023-04-18T13:10:47.418Z,13.90
2023-04-18T13:13:15.795Z,14.10
2023-04-18T13:15:44.043Z,14.10
2023-04-18T13:18:12.212Z,14.30
2023-04-18T13:20:42.226Z,14.50
2023-04-18T13:23:10.920Z,14.10
2023-04-18T13:25:39.720Z,13.50
2023-04-18T13:28:08.083Z,13.40
2023-04-18T13:30:37.160Z,13.60
2023-04-18T13:33:05.396Z,13.60
2023-04-18T13:35:33.910Z,13.80
2023-04-18T13:38:04.268Z,13.90
2023-04-18T13:40:33.474Z,13.90
2023-04-18T13:43:01.804Z,13.90
2023-04-18T13:45:30.112Z,13.70
2023-04-18T13:47:58.303Z,13.40
2023-04-18T13:50:26.719Z,13.70
2023-04-18T13:52:55.290Z,13.80
2023-04-18T13:55:25.180Z,14.10
2023-04-18T13:57:53.365Z,14.30
2023-04-18T14:00:22.270Z,14.50
2023-04-18T14:02:50.960Z,14.50
2023-04-18T14:05:19.776Z,14.60
2023-04-18T14:07:49.127Z,14.80
2023-04-18T14:10:17.244Z,14.50
2023-04-18T14:12:46.993Z,14.50
2023-04-18T14:15:15.210Z,14.50
2023-04-18T14:17:45.520Z,14.50
2023-04-18T14:20:19.397Z,14.40
2023-04-18T14:22:47.649Z,14.40
2023-04-18T14:25:17.018Z,14.50
2023-04-18T14:27:48.982Z,14.40
2023-04-18T14:30:17.436Z,14.30
2023-04-18T14:32:45.801Z,14.20
2023-04-18T14:35:14.755Z,14.20
2023-04-18T14:37:43.665Z,14.20
2023-04-18T14:40:12.810Z,14.30
2023-04-18T14:42:41.131Z,14.30
2023-04-18T14:45:12.563Z,14.30
2023-04-18T14:47:42.061Z,14.30
2023-04-18T14:50:12.550Z,14.40
2023-04-18T14:52:41.306Z,14.20
2023-04-18T14:55:10.933Z,14.10
2023-04-18T14:57:40.119Z,14.20
2023-04-18T15:00:12.232Z,14.30
2023-04-18T15:02:41.405Z,14.20
2023-04-18T15:05:13.660Z,14.40
2023-04-18T15:07:43.665Z,14.50
2023-04-18T15:10:13.189Z,14.50
2023-04-18T15:12:41.573Z,14.20
2023-04-18T15:15:12.564Z,14.00
2023-04-18T15:17:40.910Z,13.80
2023-04-18T15:20:10.301Z,13.80
2023-04-18T15:22:38.825Z,13.90
2023-04-18T15:25:08.271Z,14.00
2023-04-18T15:27:36.479Z,14.10
2023-04-18T15:30:05.086Z,14.10
2023-04-18T15:32:34.883Z,14.10
2023-04-18T15:35:03.317Z,14.30
2023-04-18T15:37:31.963Z,14.30
2023-04-18T15:40:00.180Z,14.30
2023-04-18T15:42:29.194Z,14.40
2023-04-18T15:44:57.620Z,14.40
2023-04-18T15:47:25.897Z,14.40
2023-04-18T15:49:55.966Z,14.10
2023-04-18T15:52:24.290Z,14.10
2023-04-18T15:54:52.981Z,14.10
2023-04-18T15:57:21.826Z,14.20
2023-04-18T15:59:50.148Z,14.10
2023-04-18T16:02:18.333Z,14.10
2023-04-18T16:04:46.934Z,14.20
2023-04-18T16:07:17.256Z,14.10
2023-04-18T16:09:45.385Z,14.10
2023-04-18T16:12:13.728Z,14.10
2023-04-18T16:14:42.309Z,14.10
2023-04-18T16:17:12.632Z,13.90
2023-04-18T16:19:41.074Z,13.90
2023-04-18T16:22:12.520Z,14.00
2023-04-18T16:24:42.374Z,13.90
2023-04-18T16:27:10.587Z,13.90
2023-04-18T16:29:38.827Z,13.90
2023-04-18T16:32:08.415Z,13.90
2023-04-18T16:34:36.670Z,14.00
2023-04-18T16:37:04.962Z,14.00
2023-04-18T16:39:33.385Z,13.90
2023-04-18T16:42:03.020Z,13.80
2023-04-18T16:44:31.585Z,13.80
2023-04-18T16:47:00.022Z,13.70
2023-04-18T16:49:28.380Z,13.50
2023-04-18T16:51:56.678Z,13.40
2023-04-18T16:54:25.064Z,13.40
2023-04-18T16:56:53.377Z,13.50
2023-04-18T16:59:23.090Z,13.60
2023-04-18T17:01:51.435Z,13.60
2023-04-18T17:04:19.664Z,13.50
2023-04-18T17:06:48.580Z,13.50
2023-04-18T17:09:19.785Z,13.50
2023-04-18T17:11:48.103Z,13.40
2023-04-18T17:14:16.739Z,13.50
2023-04-18T17:16:46.442Z,13.40
2023-04-18T17:19:14.948Z,13.40
2023-04-18T17:21:44.106Z,13.40
2023-04-18T17:24:12.345Z,13.40
2023-04-18T17:26:40.894Z,13.40
2023-04-18T17:29:09.177Z,13.50
2023-04-18T17:31:37.860Z,13.40
2023-04-18T17:34:07.569Z,13.40
2023-04-18T17:36:35.776Z,13.30
2023-04-18T17:39:06.501Z,13.30
2023-04-18T17:41:38.078Z,13.40
2023-04-18T17:44:08.333Z,13.40
2023-04-18T17:46:37.120Z,13.30
2023-04-18T17:49:05.776Z,13.30
2023-04-18T17:51:35.375Z,13.20
2023-04-18T17:54:05.161Z,13.00
2023-04-18T17:56:33.491Z,13.00
2023-04-18T17:59:01.983Z,13.00
2023-04-18T18:01:30.568Z,12.90
2023-04-18T18:03:59.186Z,12.90
2023-04-18T18:06:28.406Z,12.80
2023-04-18T18:08:58.050Z,12.70
2023-04-18T18:11:27.757Z,12.60
2023-04-18T18:13:57.534Z,12.50
2023-04-18T18:16:26.195Z,12.50
2023-04-18T18:18:54.765Z,12.40
2023-04-18T18:21:22.986Z,12.40
2023-04-18T18:23:51.295Z,12.40
2023-04-18T18:26:20.910Z,12.30
2023-04-18T18:28:49.198Z,12.30
2023-04-18T18:31:19.725Z,12.30
2023-04-18T18:33:48.151Z,12.20
2023-04-18T18:36:16.376Z,12.10
2023-04-18T18:38:47.674Z,12.10
2023-04-18T18:41:16.068Z,12.10
2023-04-18T18:43:45.868Z,12.10
2023-04-18T18:46:15.870Z,12.00
2023-04-18T18:48:44.454Z,12.00
2023-04-18T18:51:12.725Z,12.00
2023-04-18T18:53:40.928Z,12.00
2023-04-18T18:56:09.887Z,11.90
2023-04-18T18:58:39.216Z,11.90
2023-04-18T19:01:08.922Z,11.80
2023-04-18T19:03:37.350Z,11.80
2023-04-18T19:06:07.365Z,11.80
2023-04-18T19:08:36.109Z,11.80
2023-04-18T19:11:04.584Z,11.80
2023-04-18T19:13:33.034Z,11.80
2023-04-18T19:16:01.224Z,11.80
2023-04-18T19:18:31.095Z,11.70
2023-04-18T19:20:59.423Z,11.60
2023-04-18T19:23:27.856Z,11.60
2023-04-18T19:25:56.219Z,11.50
2023-04-18T19:28:24.754Z,11.50
2023-04-18T19:30:53.131Z,11.40
2023-04-18T19:33:24.370Z,11.40
2023-04-18T19:35:54.024Z,11.40
2023-04-18T19:38:22.249Z,11.50
2023-04-18T19:40:50.715Z,11.40
2023-04-18T19:43:19.167Z,11.40
2023-04-18T19:45:47.455Z,11.40
2023-04-18T19:48:16.713Z,11.40
2023-04-18T19:50:45.137Z,11.30
2023-04-18T19:53:15.620Z,11.30
2023-04-18T19:55:45.651Z,11.30
2023-04-18T19:58:33.708Z,11.30
2023-04-18T20:01:02.067Z,11.30
2023-04-18T20:03:31.165Z,11.30
2023-04-18T20:05:59.497Z,11.20
2023-04-18T20:08:29.403Z,11.20
2023-04-18T20:10:57.940Z,11.20
2023-04-18T20:13:26.099Z,11.20
2023-04-18T20:15:54.218Z,11.20
2023-04-18T20:18:24.062Z,11.10
2023-04-18T20:20:52.235Z,11.10
2023-04-18T20:23:20.606Z,11.10
2023-04-18T20:25:51.055Z,11.10
2023-04-18T20:28:19.246Z,11.10
2023-04-18T20:30:48.101Z,11.10
2023-04-18T20:33:16.733Z,11.10
2023-04-18T20:35:46.765Z,11.10
2023-04-18T20:38:15.364Z,11.00
2023-04-18T20:40:45.052Z,11.10
2023-04-18T20:43:17.493Z,10.90
2023-04-18T20:45:46.118Z,10.80
2023-04-18T20:48:14.462Z,10.80
2023-04-18T20:50:44.481Z,10.70
2023-04-18T20:53:12.842Z,10.80
2023-04-18T20:55:40.980Z,10.80
2023-04-18T20:58:09.209Z,10.80
2023-04-18T21:00:38.935Z,10.80
2023-04-18T21:03:07.319Z,10.80
2023-04-18T21:05:35.650Z,10.80
2023-04-18T21:08:04.149Z,10.80
2023-04-18T21:10:33.229Z,10.80
2023-04-18T21:13:01.366Z,10.60
2023-04-18T21:15:29.730Z,10.60
2023-04-18T21:17:59.443Z,10.50
2023-04-18T21:20:27.829Z,10.60
2023-04-18T21:22:56.116Z,10.60
2023-04-18T21:25:24.389Z,10.70
2023-04-18T21:27:52.542Z,10.60
2023-04-18T21:30:21.311Z,10.60
2023-04-18T21:32:51.516Z,10.50
2023-04-18T21:35:23.406Z,10.50
2023-04-18T21:37:53.278Z,10.50
2023-04-18T21:40:21.710Z,10.50
2023-04-18T21:42:50.988Z,10.40
2023-04-18T21:45:19.825Z,10.40
2023-04-18T21:47:48.045Z,10.40
2023-04-18T21:50:16.339Z,10.40
2023-04-18T21:52:46.167Z,10.30
2023-04-18T21:55:14.555Z,10.40
2023-04-18T21:57:42.741Z,10.40
2023-04-18T22:00:12.883Z,10.40
2023-04-18T22:02:41.138Z,10.30
2023-04-18T22:05:09.950Z,10.30
2023-04-18T22:07:50.153Z,10.30
2023-04-18T22:10:24.912Z,10.30
2023-04-18T22:12:54.209Z,10.30
2023-04-18T22:15:22.559Z,10.30
2023-04-18T22:17:50.757Z,10.30
2023-04-18T22:20:19.024Z,10.30
2023-04-18T22:22:47.246Z,10.20
2023-04-18T22:25:15.464Z,10.10
2023-04-18T22:27:46.522Z,10.20
2023-04-18T22:30:15.914Z,10.10
2023-04-18T22:32:44.185Z,10.00
2023-04-18T22:35:12.925Z,10.20
2023-04-18T22:37:41.131Z,10.20
2023-04-18T22:40:10.442Z,10.10
2023-04-18T22:42:39.021Z,10.10
2023-04-18T22:45:09.831Z,10.20
2023-04-18T22:47:38.058Z,10.10
2023-04-18T22:50:10.225Z,10.00
2023-04-18T22:52:38.395Z,10.00
2023-04-18T22:55:07.289Z,10.00
2023-04-18T22:57:36.017Z,9.90
2023-04-18T23:00:06.447Z,9.80
2023-04-18T23:02:36.391Z,9.80
2023-04-18T23:05:05.437Z,9.80
2023-04-18T23:07:33.561Z,9.80
2023-04-18T23:10:01.825Z,9.90
2023-04-18T23:12:30.174Z,9.80
2023-04-18T23:14:58.264Z,9.90
2023-04-18T23:17:26.659Z,9.90
2023-04-18T23:19:56.325Z,9.80
2023-04-18T23:22:25.200Z,9.80
2023-04-18T23:24:53.578Z,9.80
2023-04-18T23:27:22.122Z,9.80
2023-04-18T23:29:50.891Z,9.80
2023-04-18T23:32:19.048Z,9.60
2023-04-18T23:34:47.480Z,9.60
2023-04-18T23:37:16.991Z,9.60
2023-04-18T23:39:45.401Z,9.60
2023-04-18T23:42:13.814Z,9.60
2023-04-18T23:44:41.919Z,9.70
2023-04-18T23:47:10.205Z,9.60
2023-04-18T23:49:38.534Z,9.60
2023-04-18T23:52:07.209Z,9.60
2023-04-18T23:54:36.724Z,9.60
2023-04-18T23:57:04.997Z,9.60
2023-04-18T23:59:33.211Z,9.60
